sensor_id;sensor_type;location;lat;lon;timestamp;P1;durP1;ratioP1;P2;durP2;ratioP2
19940;SDS011;10132;50.864;5.176;2023-11-19T00:01:53;187.70;;;176.80;;
19940;SDS011;10132;50.864;5.176;2023-11-19T00:03:55;200.23;;;188.77;;
19940;SDS011;10132;50.864;5.176;2023-11-19T00:05:57;143.27;;;135.27;;
19940;SDS011;10132;50.864;5.176;2023-11-19T00:07:59;249.60;;;235.97;;
19940;SDS011;10132;50.864;5.176;2023-11-19T00:10:02;159.50;;;150.53;;
19940;SDS011;10132;50.864;5.176;2023-11-19T00:12:07;189.50;;;178.17;;
19940;SDS011;10132;50.864;5.176;2023-11-19T00:14:09;213.33;;;200.67;;
19940;SDS011;10132;50.864;5.176;2023-11-19T00:16:12;245.67;;;231.17;;
19940;SDS011;10132;50.864;5.176;2023-11-19T00:18:14;119.80;;;113.30;;
19940;SDS011;10132;50.864;5.176;2023-11-19T00:20:17;159.07;;;149.70;;
19940;SDS011;10132;50.864;5.176;2023-11-19T00:22:18;268.50;;;252.43;;
19940;SDS011;10132;50.864;5.176;2023-11-19T00:24:21;208.10;;;195.97;;
19940;SDS011;10132;50.864;5.176;2023-11-19T00:26:23;214.87;;;201.80;;
19940;SDS011;10132;50.864;5.176;2023-11-19T00:28:24;182.90;;;172.50;;
19940;SDS011;10132;50.864;5.176;2023-11-19T00:30:26;159.13;;;150.40;;
19940;SDS011;10132;50.864;5.176;2023-11-19T00:32:28;128.90;;;121.33;;
19940;SDS011;10132;50.864;5.176;2023-11-19T00:34:30;111.00;;;104.87;;
19940;SDS011;10132;50.864;5.176;2023-11-19T00:36:32;150.50;;;142.30;;
19940;SDS011;10132;50.864;5.176;2023-11-19T00:38:34;71.10;;;67.17;;
19940;SDS011;10132;50.864;5.176;2023-11-19T00:40:36;144.13;;;135.73;;
19940;SDS011;10132;50.864;5.176;2023-11-19T00:42:38;170.10;;;160.73;;
19940;SDS011;10132;50.864;5.176;2023-11-19T00:44:39;198.00;;;186.47;;
19940;SDS011;10132;50.864;5.176;2023-11-19T00:46:42;206.63;;;195.10;;
19940;SDS011;10132;50.864;5.176;2023-11-19T00:48:44;157.77;;;148.60;;
19940;SDS011;10132;50.864;5.176;2023-11-19T00:50:47;183.30;;;172.53;;
19940;SDS011;10132;50.864;5.176;2023-11-19T00:52:49;142.10;;;133.80;;
19940;SDS011;10132;50.864;5.176;2023-11-19T00:54:51;102.03;;;95.73;;
19940;SDS011;10132;50.864;5.176;2023-11-19T00:56:53;154.40;;;145.67;;
19940;SDS011;10132;50.864;5.176;2023-11-19T00:58:55;116.83;;;109.93;;
19940;SDS011;10132;50.864;5.176;2023-11-19T01:00:57;152.03;;;143.10;;
19940;SDS011;10132;50.864;5.176;2023-11-19T01:02:59;138.30;;;129.60;;
19940;SDS011;10132;50.864;5.176;2023-11-19T01:05:03;115.40;;;108.77;;
19940;SDS011;10132;50.864;5.176;2023-11-19T01:07:06;82.17;;;77.17;;
19940;SDS011;10132;50.864;5.176;2023-11-19T01:09:07;73.60;;;69.27;;
19940;SDS011;10132;50.864;5.176;2023-11-19T01:11:18;64.50;;;60.63;;
19940;SDS011;10132;50.864;5.176;2023-11-19T01:13:22;62.40;;;58.70;;
19940;SDS011;10132;50.864;5.176;2023-11-19T01:15:24;68.33;;;64.23;;
19940;SDS011;10132;50.864;5.176;2023-11-19T01:17:26;64.20;;;60.13;;
19940;SDS011;10132;50.864;5.176;2023-11-19T01:19:28;45.83;;;42.87;;
19940;SDS011;10132;50.864;5.176;2023-11-19T01:21:31;64.63;;;60.77;;
19940;SDS011;10132;50.864;5.176;2023-11-19T01:23:33;61.23;;;57.47;;
19940;SDS011;10132;50.864;5.176;2023-11-19T01:25:35;55.73;;;51.90;;
19940;SDS011;10132;50.864;5.176;2023-11-19T01:27:38;53.60;;;50.07;;
19940;SDS011;10132;50.864;5.176;2023-11-19T01:29:40;37.67;;;35.13;;
19940;SDS011;10132;50.864;5.176;2023-11-19T01:31:43;41.57;;;38.33;;
19940;SDS011;10132;50.864;5.176;2023-11-19T01:33:46;33.60;;;31.23;;
19940;SDS011;10132;50.864;5.176;2023-11-19T01:35:48;36.83;;;34.43;;
19940;SDS011;10132;50.864;5.176;2023-11-19T01:37:52;35.30;;;32.70;;
19940;SDS011;10132;50.864;5.176;2023-11-19T01:39:54;32.53;;;29.83;;
19940;SDS011;10132;50.864;5.176;2023-11-19T01:41:56;30.57;;;28.10;;
19940;SDS011;10132;50.864;5.176;2023-11-19T01:43:57;43.00;;;40.17;;
19940;SDS011;10132;50.864;5.176;2023-11-19T01:45:59;45.47;;;42.07;;
19940;SDS011;10132;50.864;5.176;2023-11-19T01:48:02;44.70;;;41.67;;
19940;SDS011;10132;50.864;5.176;2023-11-19T01:50:05;48.43;;;44.63;;
19940;SDS011;10132;50.864;5.176;2023-11-19T01:52:08;45.97;;;42.47;;
19940;SDS011;10132;50.864;5.176;2023-11-19T01:54:12;26.47;;;24.17;;
19940;SDS011;10132;50.864;5.176;2023-11-19T01:56:15;36.63;;;33.83;;
19940;SDS011;10132;50.864;5.176;2023-11-19T01:58:17;43.57;;;40.30;;
19940;SDS011;10132;50.864;5.176;2023-11-19T02:00:19;24.03;;;21.53;;
19940;SDS011;10132;50.864;5.176;2023-11-19T02:02:21;23.07;;;19.43;;
19940;SDS011;10132;50.864;5.176;2023-11-19T02:04:23;43.83;;;40.77;;
19940;SDS011;10132;50.864;5.176;2023-11-19T02:06:26;44.50;;;41.20;;
19940;SDS011;10132;50.864;5.176;2023-11-19T02:08:30;40.37;;;37.30;;
19940;SDS011;10132;50.864;5.176;2023-11-19T02:10:33;44.43;;;41.17;;
19940;SDS011;10132;50.864;5.176;2023-11-19T02:12:36;44.33;;;40.97;;
19940;SDS011;10132;50.864;5.176;2023-11-19T02:14:37;51.07;;;47.33;;
19940;SDS011;10132;50.864;5.176;2023-11-19T02:16:39;37.70;;;34.03;;
19940;SDS011;10132;50.864;5.176;2023-11-19T02:18:41;28.30;;;25.87;;
19940;SDS011;10132;50.864;5.176;2023-11-19T02:20:43;18.90;;;17.10;;
19940;SDS011;10132;50.864;5.176;2023-11-19T02:22:44;20.97;;;18.77;;
19940;SDS011;10132;50.864;5.176;2023-11-19T02:24:47;36.57;;;33.73;;
19940;SDS011;10132;50.864;5.176;2023-11-19T02:26:55;36.37;;;33.57;;
19940;SDS011;10132;50.864;5.176;2023-11-19T02:29:03;30.47;;;27.77;;
19940;SDS011;10132;50.864;5.176;2023-11-19T02:31:06;21.00;;;16.47;;
19940;SDS011;10132;50.864;5.176;2023-11-19T02:33:09;18.07;;;15.47;;
19940;SDS011;10132;50.864;5.176;2023-11-19T02:35:11;33.70;;;30.90;;
19940;SDS011;10132;50.864;5.176;2023-11-19T02:37:13;25.50;;;23.10;;
19940;SDS011;10132;50.864;5.176;2023-11-19T02:39:15;21.43;;;17.37;;
19940;SDS011;10132;50.864;5.176;2023-11-19T02:41:21;21.23;;;19.37;;
19940;SDS011;10132;50.864;5.176;2023-11-19T02:43:24;26.90;;;24.47;;
19940;SDS011;10132;50.864;5.176;2023-11-19T02:45:26;29.77;;;26.90;;
19940;SDS011;10132;50.864;5.176;2023-11-19T02:47:31;30.87;;;28.13;;
19940;SDS011;10132;50.864;5.176;2023-11-19T02:49:32;28.73;;;25.77;;
19940;SDS011;10132;50.864;5.176;2023-11-19T02:51:34;26.63;;;19.53;;
19940;SDS011;10132;50.864;5.176;2023-11-19T02:53:36;27.47;;;25.00;;
19940;SDS011;10132;50.864;5.176;2023-11-19T02:55:39;26.23;;;23.83;;
19940;SDS011;10132;50.864;5.176;2023-11-19T02:57:48;26.47;;;24.07;;
19940;SDS011;10132;50.864;5.176;2023-11-19T02:59:50;27.60;;;25.30;;
19940;SDS011;10132;50.864;5.176;2023-11-19T03:01:53;27.43;;;24.53;;
19940;SDS011;10132;50.864;5.176;2023-11-19T03:03:55;38.50;;;35.53;;
19940;SDS011;10132;50.864;5.176;2023-11-19T03:05:58;28.53;;;25.60;;
19940;SDS011;10132;50.864;5.176;2023-11-19T03:08:00;29.17;;;26.80;;
19940;SDS011;10132;50.864;5.176;2023-11-19T03:10:01;22.73;;;20.63;;
19940;SDS011;10132;50.864;5.176;2023-11-19T03:12:06;21.90;;;18.27;;
19940;SDS011;10132;50.864;5.176;2023-11-19T03:14:08;33.03;;;30.13;;
19940;SDS011;10132;50.864;5.176;2023-11-19T03:16:10;32.63;;;29.23;;
19940;SDS011;10132;50.864;5.176;2023-11-19T03:18:13;25.67;;;21.73;;
19940;SDS011;10132;50.864;5.176;2023-11-19T03:20:15;32.13;;;29.57;;
19940;SDS011;10132;50.864;5.176;2023-11-19T03:22:17;25.33;;;22.63;;
19940;SDS011;10132;50.864;5.176;2023-11-19T03:24:21;24.97;;;22.30;;
19940;SDS011;10132;50.864;5.176;2023-11-19T03:26:22;21.43;;;19.43;;
19940;SDS011;10132;50.864;5.176;2023-11-19T03:28:24;28.73;;;21.03;;
19940;SDS011;10132;50.864;5.176;2023-11-19T03:30:27;29.83;;;26.67;;
19940;SDS011;10132;50.864;5.176;2023-11-19T03:32:29;23.53;;;17.93;;
19940;SDS011;10132;50.864;5.176;2023-11-19T03:34:32;17.17;;;14.23;;
19940;SDS011;10132;50.864;5.176;2023-11-19T03:36:34;18.57;;;14.80;;
19940;SDS011;10132;50.864;5.176;2023-11-19T03:38:36;27.77;;;24.27;;
19940;SDS011;10132;50.864;5.176;2023-11-19T03:40:39;37.93;;;34.47;;
19940;SDS011;10132;50.864;5.176;2023-11-19T03:42:41;24.20;;;22.10;;
19940;SDS011;10132;50.864;5.176;2023-11-19T03:44:43;31.20;;;28.63;;
19940;SDS011;10132;50.864;5.176;2023-11-19T03:46:44;26.03;;;22.73;;
19940;SDS011;10132;50.864;5.176;2023-11-19T03:48:47;17.83;;;15.67;;
19940;SDS011;10132;50.864;5.176;2023-11-19T03:50:51;23.67;;;16.83;;
19940;SDS011;10132;50.864;5.176;2023-11-19T03:52:52;20.83;;;14.63;;
19940;SDS011;10132;50.864;5.176;2023-11-19T03:54:54;20.33;;;14.20;;
19940;SDS011;10132;50.864;5.176;2023-11-19T03:56:57;22.73;;;18.73;;
19940;SDS011;10132;50.864;5.176;2023-11-19T03:59:00;28.90;;;25.80;;
19940;SDS011;10132;50.864;5.176;2023-11-19T04:01:02;58.93;;;54.63;;
19940;SDS011;10132;50.864;5.176;2023-11-19T04:03:03;43.60;;;40.27;;
19940;SDS011;10132;50.864;5.176;2023-11-19T04:05:05;22.30;;;14.53;;
19940;SDS011;10132;50.864;5.176;2023-11-19T04:07:09;19.47;;;17.47;;
19940;SDS011;10132;50.864;5.176;2023-11-19T04:09:11;29.33;;;26.53;;
19940;SDS011;10132;50.864;5.176;2023-11-19T04:11:13;18.77;;;16.83;;
19940;SDS011;10132;50.864;5.176;2023-11-19T04:13:14;19.40;;;14.60;;
19940;SDS011;10132;50.864;5.176;2023-11-19T04:15:17;21.77;;;13.80;;
19940;SDS011;10132;50.864;5.176;2023-11-19T04:17:19;17.93;;;13.80;;
19940;SDS011;10132;50.864;5.176;2023-11-19T04:19:21;19.37;;;15.53;;
19940;SDS011;10132;50.864;5.176;2023-11-19T04:21:23;22.13;;;15.77;;
19940;SDS011;10132;50.864;5.176;2023-11-19T04:23:25;18.30;;;16.33;;
19940;SDS011;10132;50.864;5.176;2023-11-19T04:25:27;21.07;;;14.87;;
19940;SDS011;10132;50.864;5.176;2023-11-19T04:27:29;38.00;;;34.57;;
19940;SDS011;10132;50.864;5.176;2023-11-19T04:29:31;23.43;;;16.50;;
19940;SDS011;10132;50.864;5.176;2023-11-19T04:31:34;35.47;;;32.27;;
19940;SDS011;10132;50.864;5.176;2023-11-19T04:33:36;28.40;;;16.67;;
19940;SDS011;10132;50.864;5.176;2023-11-19T04:35:38;26.87;;;20.77;;
19940;SDS011;10132;50.864;5.176;2023-11-19T04:37:41;28.57;;;25.57;;
19940;SDS011;10132;50.864;5.176;2023-11-19T04:39:45;33.57;;;28.23;;
19940;SDS011;10132;50.864;5.176;2023-11-19T04:41:47;28.33;;;21.27;;
19940;SDS011;10132;50.864;5.176;2023-11-19T04:43:49;31.93;;;29.23;;
19940;SDS011;10132;50.864;5.176;2023-11-19T04:45:51;24.23;;;21.83;;
19940;SDS011;10132;50.864;5.176;2023-11-19T04:47:52;17.67;;;13.97;;
19940;SDS011;10132;50.864;5.176;2023-11-19T04:49:54;21.97;;;16.23;;
19940;SDS011;10132;50.864;5.176;2023-11-19T04:51:56;25.57;;;22.97;;
19940;SDS011;10132;50.864;5.176;2023-11-19T04:53:58;26.60;;;22.47;;
19940;SDS011;10132;50.864;5.176;2023-11-19T04:56:01;27.03;;;22.33;;
19940;SDS011;10132;50.864;5.176;2023-11-19T04:58:09;27.00;;;20.30;;
19940;SDS011;10132;50.864;5.176;2023-11-19T05:00:11;31.50;;;27.17;;
19940;SDS011;10132;50.864;5.176;2023-11-19T05:02:14;30.73;;;17.67;;
19940;SDS011;10132;50.864;5.176;2023-11-19T05:04:16;33.30;;;29.93;;
19940;SDS011;10132;50.864;5.176;2023-11-19T05:06:18;45.60;;;41.30;;
19940;SDS011;10132;50.864;5.176;2023-11-19T05:08:19;38.70;;;34.83;;
19940;SDS011;10132;50.864;5.176;2023-11-19T05:10:21;26.60;;;23.97;;
19940;SDS011;10132;50.864;5.176;2023-11-19T05:12:26;64.70;;;59.80;;
19940;SDS011;10132;50.864;5.176;2023-11-19T05:14:28;28.70;;;23.80;;
19940;SDS011;10132;50.864;5.176;2023-11-19T05:16:29;49.60;;;45.10;;
19940;SDS011;10132;50.864;5.176;2023-11-19T05:18:31;47.70;;;43.47;;
19940;SDS011;10132;50.864;5.176;2023-11-19T05:20:33;57.93;;;53.23;;
19940;SDS011;10132;50.864;5.176;2023-11-19T05:22:35;49.07;;;44.90;;
19940;SDS011;10132;50.864;5.176;2023-11-19T05:24:37;37.03;;;29.57;;
19940;SDS011;10132;50.864;5.176;2023-11-19T05:26:40;28.57;;;22.23;;
19940;SDS011;10132;50.864;5.176;2023-11-19T05:28:44;27.33;;;21.03;;
19940;SDS011;10132;50.864;5.176;2023-11-19T05:30:46;50.63;;;45.37;;
19940;SDS011;10132;50.864;5.176;2023-11-19T05:32:48;28.30;;;17.70;;
19940;SDS011;10132;50.864;5.176;2023-11-19T05:34:49;32.73;;;20.07;;
19940;SDS011;10132;50.864;5.176;2023-11-19T05:36:50;32.03;;;26.20;;
19940;SDS011;10132;50.864;5.176;2023-11-19T05:38:52;27.70;;;20.77;;
19940;SDS011;10132;50.864;5.176;2023-11-19T05:40:54;28.03;;;23.97;;
19940;SDS011;10132;50.864;5.176;2023-11-19T05:42:55;25.17;;;20.87;;
19940;SDS011;10132;50.864;5.176;2023-11-19T05:44:59;23.80;;;16.60;;
19940;SDS011;10132;50.864;5.176;2023-11-19T05:47:01;25.40;;;18.10;;
19940;SDS011;10132;50.864;5.176;2023-11-19T05:49:03;35.37;;;31.67;;
19940;SDS011;10132;50.864;5.176;2023-11-19T05:51:05;25.47;;;20.17;;
19940;SDS011;10132;50.864;5.176;2023-11-19T05:53:07;25.80;;;16.43;;
19940;SDS011;10132;50.864;5.176;2023-11-19T05:55:10;24.33;;;17.73;;
19940;SDS011;10132;50.864;5.176;2023-11-19T05:57:13;25.70;;;11.60;;
19940;SDS011;10132;50.864;5.176;2023-11-19T05:59:18;26.33;;;15.40;;
19940;SDS011;10132;50.864;5.176;2023-11-19T06:01:24;25.90;;;15.30;;
19940;SDS011;10132;50.864;5.176;2023-11-19T06:03:26;17.57;;;12.57;;
19940;SDS011;10132;50.864;5.176;2023-11-19T06:05:28;24.60;;;11.27;;
19940;SDS011;10132;50.864;5.176;2023-11-19T06:07:30;22.60;;;10.73;;
19940;SDS011;10132;50.864;5.176;2023-11-19T06:09:32;23.13;;;10.27;;
19940;SDS011;10132;50.864;5.176;2023-11-19T06:11:35;26.23;;;16.30;;
19940;SDS011;10132;50.864;5.176;2023-11-19T06:13:37;23.83;;;14.60;;
19940;SDS011;10132;50.864;5.176;2023-11-19T06:15:39;33.37;;;20.23;;
19940;SDS011;10132;50.864;5.176;2023-11-19T06:17:43;29.53;;;18.90;;
19940;SDS011;10132;50.864;5.176;2023-11-19T06:19:46;26.67;;;21.03;;
19940;SDS011;10132;50.864;5.176;2023-11-19T06:21:48;30.00;;;18.57;;
19940;SDS011;10132;50.864;5.176;2023-11-19T06:23:50;27.53;;;17.70;;
19940;SDS011;10132;50.864;5.176;2023-11-19T06:25:53;22.50;;;15.63;;
19940;SDS011;10132;50.864;5.176;2023-11-19T06:27:55;28.37;;;21.00;;
19940;SDS011;10132;50.864;5.176;2023-11-19T06:29:58;28.67;;;16.07;;
19940;SDS011;10132;50.864;5.176;2023-11-19T06:32:00;33.33;;;18.13;;
19940;SDS011;10132;50.864;5.176;2023-11-19T06:34:03;24.53;;;17.07;;
19940;SDS011;10132;50.864;5.176;2023-11-19T06:36:06;26.67;;;19.90;;
19940;SDS011;10132;50.864;5.176;2023-11-19T06:38:09;31.67;;;22.43;;
19940;SDS011;10132;50.864;5.176;2023-11-19T06:40:11;33.03;;;29.03;;
19940;SDS011;10132;50.864;5.176;2023-11-19T06:42:15;34.70;;;17.87;;
19940;SDS011;10132;50.864;5.176;2023-11-19T06:44:17;40.97;;;36.57;;
19940;SDS011;10132;50.864;5.176;2023-11-19T06:46:19;49.30;;;44.63;;
19940;SDS011;10132;50.864;5.176;2023-11-19T06:48:20;55.67;;;51.30;;
19940;SDS011;10132;50.864;5.176;2023-11-19T06:50:24;41.13;;;36.97;;
19940;SDS011;10132;50.864;5.176;2023-11-19T06:52:25;48.07;;;43.87;;
19940;SDS011;10132;50.864;5.176;2023-11-19T06:54:27;47.63;;;43.73;;
19940;SDS011;10132;50.864;5.176;2023-11-19T06:56:29;45.10;;;40.43;;
19940;SDS011;10132;50.864;5.176;2023-11-19T06:58:31;40.77;;;37.30;;
19940;SDS011;10132;50.864;5.176;2023-11-19T07:00:34;36.30;;;27.30;;
19940;SDS011;10132;50.864;5.176;2023-11-19T07:02:37;45.03;;;41.23;;
19940;SDS011;10132;50.864;5.176;2023-11-19T07:04:40;27.87;;;20.67;;
19940;SDS011;10132;50.864;5.176;2023-11-19T07:06:42;38.90;;;35.03;;
19940;SDS011;10132;50.864;5.176;2023-11-19T07:08:44;31.33;;;27.93;;
19940;SDS011;10132;50.864;5.176;2023-11-19T07:10:45;28.60;;;18.80;;
19940;SDS011;10132;50.864;5.176;2023-11-19T07:12:49;60.97;;;56.13;;
19940;SDS011;10132;50.864;5.176;2023-11-19T07:14:51;58.37;;;53.57;;
19940;SDS011;10132;50.864;5.176;2023-11-19T07:16:52;49.43;;;44.33;;
19940;SDS011;10132;50.864;5.176;2023-11-19T07:18:53;55.80;;;51.50;;
19940;SDS011;10132;50.864;5.176;2023-11-19T07:20:55;59.33;;;54.17;;
19940;SDS011;10132;50.864;5.176;2023-11-19T07:22:59;29.93;;;24.23;;
19940;SDS011;10132;50.864;5.176;2023-11-19T07:25:01;40.77;;;36.93;;
19940;SDS011;10132;50.864;5.176;2023-11-19T07:27:02;28.33;;;23.17;;
19940;SDS011;10132;50.864;5.176;2023-11-19T07:29:04;34.13;;;21.80;;
19940;SDS011;10132;50.864;5.176;2023-11-19T07:31:07;29.83;;;17.43;;
19940;SDS011;10132;50.864;5.176;2023-11-19T07:33:09;27.23;;;20.40;;
19940;SDS011;10132;50.864;5.176;2023-11-19T07:35:12;33.07;;;22.93;;
19940;SDS011;10132;50.864;5.176;2023-11-19T07:37:13;34.50;;;23.07;;
19940;SDS011;10132;50.864;5.176;2023-11-19T07:39:18;32.13;;;20.67;;
19940;SDS011;10132;50.864;5.176;2023-11-19T07:41:21;29.30;;;21.97;;
19940;SDS011;10132;50.864;5.176;2023-11-19T07:43:22;27.90;;;18.17;;
19940;SDS011;10132;50.864;5.176;2023-11-19T07:45:24;38.03;;;30.93;;
19940;SDS011;10132;50.864;5.176;2023-11-19T07:47:27;31.47;;;28.27;;
19940;SDS011;10132;50.864;5.176;2023-11-19T07:49:29;32.23;;;25.13;;
19940;SDS011;10132;50.864;5.176;2023-11-19T07:51:32;36.03;;;32.23;;
19940;SDS011;10132;50.864;5.176;2023-11-19T07:53:34;30.67;;;19.70;;
19940;SDS011;10132;50.864;5.176;2023-11-19T07:55:39;38.07;;;33.83;;
19940;SDS011;10132;50.864;5.176;2023-11-19T07:57:40;35.53;;;29.70;;
19940;SDS011;10132;50.864;5.176;2023-11-19T07:59:42;34.93;;;27.63;;
19940;SDS011;10132;50.864;5.176;2023-11-19T08:01:43;28.80;;;25.47;;
19940;SDS011;10132;50.864;5.176;2023-11-19T08:03:45;31.73;;;28.10;;
19940;SDS011;10132;50.864;5.176;2023-11-19T08:05:47;43.30;;;39.00;;
19940;SDS011;10132;50.864;5.176;2023-11-19T08:07:49;35.50;;;24.20;;
19940;SDS011;10132;50.864;5.176;2023-11-19T08:09:52;29.30;;;17.00;;
19940;SDS011;10132;50.864;5.176;2023-11-19T08:11:55;31.63;;;16.97;;
19940;SDS011;10132;50.864;5.176;2023-11-19T08:13:57;30.53;;;13.83;;
19940;SDS011;10132;50.864;5.176;2023-11-19T08:15:59;31.40;;;12.83;;
19940;SDS011;10132;50.864;5.176;2023-11-19T08:18:01;25.23;;;13.20;;
19940;SDS011;10132;50.864;5.176;2023-11-19T08:20:03;22.00;;;13.73;;
19940;SDS011;10132;50.864;5.176;2023-11-19T08:22:10;29.33;;;16.17;;
19940;SDS011;10132;50.864;5.176;2023-11-19T08:24:12;30.33;;;16.10;;
19940;SDS011;10132;50.864;5.176;2023-11-19T08:26:14;25.10;;;10.93;;
19940;SDS011;10132;50.864;5.176;2023-11-19T08:28:18;24.97;;;8.93;;
19940;SDS011;10132;50.864;5.176;2023-11-19T08:30:20;24.80;;;9.20;;
19940;SDS011;10132;50.864;5.176;2023-11-19T08:32:22;23.37;;;9.80;;
19940;SDS011;10132;50.864;5.176;2023-11-19T08:34:24;21.97;;;8.70;;
19940;SDS011;10132;50.864;5.176;2023-11-19T08:36:26;24.93;;;10.40;;
19940;SDS011;10132;50.864;5.176;2023-11-19T08:38:29;19.43;;;8.87;;
19940;SDS011;10132;50.864;5.176;2023-11-19T08:40:29;28.13;;;18.97;;
19940;SDS011;10132;50.864;5.176;2023-11-19T08:42:31;37.93;;;31.37;;
19940;SDS011;10132;50.864;5.176;2023-11-19T08:44:34;21.83;;;10.97;;
19940;SDS011;10132;50.864;5.176;2023-11-19T08:46:36;30.03;;;10.37;;
19940;SDS011;10132;50.864;5.176;2023-11-19T08:48:38;27.37;;;10.90;;
19940;SDS011;10132;50.864;5.176;2023-11-19T08:50:40;21.37;;;12.03;;
19940;SDS011;10132;50.864;5.176;2023-11-19T08:52:42;24.67;;;15.07;;
19940;SDS011;10132;50.864;5.176;2023-11-19T08:54:44;26.03;;;13.37;;
19940;SDS011;10132;50.864;5.176;2023-11-19T08:56:45;24.53;;;10.77;;
19940;SDS011;10132;50.864;5.176;2023-11-19T08:58:47;34.13;;;22.80;;
19940;SDS011;10132;50.864;5.176;2023-11-19T09:00:50;24.30;;;11.37;;
19940;SDS011;10132;50.864;5.176;2023-11-19T09:02:53;29.10;;;17.80;;
19940;SDS011;10132;50.864;5.176;2023-11-19T09:04:55;26.17;;;8.83;;
19940;SDS011;10132;50.864;5.176;2023-11-19T09:06:57;20.43;;;7.40;;
19940;SDS011;10132;50.864;5.176;2023-11-19T09:08:59;20.73;;;7.87;;
19940;SDS011;10132;50.864;5.176;2023-11-19T09:11:06;24.97;;;7.70;;
19940;SDS011;10132;50.864;5.176;2023-11-19T09:13:09;23.07;;;7.03;;
19940;SDS011;10132;50.864;5.176;2023-11-19T09:15:11;24.27;;;8.40;;
19940;SDS011;10132;50.864;5.176;2023-11-19T09:17:14;15.73;;;7.20;;
19940;SDS011;10132;50.864;5.176;2023-11-19T09:19:18;22.90;;;9.10;;
19940;SDS011;10132;50.864;5.176;2023-11-19T09:21:20;23.37;;;12.13;;
19940;SDS011;10132;50.864;5.176;2023-11-19T09:23:22;18.37;;;7.57;;
19940;SDS011;10132;50.864;5.176;2023-11-19T09:25:25;20.73;;;9.30;;
19940;SDS011;10132;50.864;5.176;2023-11-19T09:27:27;26.10;;;19.90;;
19940;SDS011;10132;50.864;5.176;2023-11-19T09:29:31;20.53;;;9.60;;
19940;SDS011;10132;50.864;5.176;2023-11-19T09:31:33;25.97;;;8.27;;
19940;SDS011;10132;50.864;5.176;2023-11-19T09:33:36;22.30;;;10.03;;
19940;SDS011;10132;50.864;5.176;2023-11-19T09:35:38;26.07;;;13.37;;
19940;SDS011;10132;50.864;5.176;2023-11-19T09:37:40;21.77;;;16.77;;
19940;SDS011;10132;50.864;5.176;2023-11-19T09:39:42;22.43;;;18.43;;
19940;SDS011;10132;50.864;5.176;2023-11-19T09:41:44;38.53;;;35.00;;
19940;SDS011;10132;50.864;5.176;2023-11-19T09:43:46;44.17;;;40.23;;
19940;SDS011;10132;50.864;5.176;2023-11-19T09:45:49;44.50;;;40.47;;
19940;SDS011;10132;50.864;5.176;2023-11-19T09:47:51;28.60;;;25.40;;
19940;SDS011;10132;50.864;5.176;2023-11-19T09:49:54;23.70;;;18.47;;
19940;SDS011;10132;50.864;5.176;2023-11-19T09:51:57;23.20;;;16.53;;
19940;SDS011;10132;50.864;5.176;2023-11-19T09:53:59;30.80;;;18.80;;
19940;SDS011;10132;50.864;5.176;2023-11-19T09:56:00;26.57;;;16.90;;
19940;SDS011;10132;50.864;5.176;2023-11-19T09:58:03;75.47;;;65.17;;
19940;SDS011;10132;50.864;5.176;2023-11-19T10:00:08;21.87;;;13.00;;
19940;SDS011;10132;50.864;5.176;2023-11-19T10:02:12;117.10;;;86.97;;
19940;SDS011;10132;50.864;5.176;2023-11-19T10:04:15;28.47;;;8.17;;
19940;SDS011;10132;50.864;5.176;2023-11-19T10:06:19;27.70;;;15.13;;
19940;SDS011;10132;50.864;5.176;2023-11-19T10:08:21;19.53;;;11.20;;
19940;SDS011;10132;50.864;5.176;2023-11-19T10:10:23;26.57;;;20.93;;
19940;SDS011;10132;50.864;5.176;2023-11-19T10:12:26;20.93;;;12.33;;
19940;SDS011;10132;50.864;5.176;2023-11-19T10:14:28;17.90;;;8.87;;
19940;SDS011;10132;50.864;5.176;2023-11-19T10:16:34;22.27;;;12.77;;
19940;SDS011;10132;50.864;5.176;2023-11-19T10:18:36;16.10;;;12.83;;
19940;SDS011;10132;50.864;5.176;2023-11-19T10:20:40;19.33;;;9.80;;
19940;SDS011;10132;50.864;5.176;2023-11-19T10:22:44;22.97;;;10.13;;
19940;SDS011;10132;50.864;5.176;2023-11-19T10:24:47;19.97;;;9.27;;
19940;SDS011;10132;50.864;5.176;2023-11-19T10:26:48;18.20;;;12.50;;
19940;SDS011;10132;50.864;5.176;2023-11-19T10:28:50;20.43;;;9.77;;
19940;SDS011;10132;50.864;5.176;2023-11-19T10:30:52;25.80;;;23.10;;
19940;SDS011;10132;50.864;5.176;2023-11-19T10:33:04;25.30;;;11.93;;
19940;SDS011;10132;50.864;5.176;2023-11-19T10:35:07;21.33;;;13.47;;
19940;SDS011;10132;50.864;5.176;2023-11-19T10:37:20;25.97;;;21.30;;
19940;SDS011;10132;50.864;5.176;2023-11-19T10:39:37;14.83;;;7.93;;
19940;SDS011;10132;50.864;5.176;2023-11-19T10:41:54;29.80;;;17.73;;
19940;SDS011;10132;50.864;5.176;2023-11-19T10:43:56;17.67;;;6.20;;
19940;SDS011;10132;50.864;5.176;2023-11-19T10:46:08;19.40;;;6.57;;
19940;SDS011;10132;50.864;5.176;2023-11-19T10:48:11;21.80;;;6.67;;
19940;SDS011;10132;50.864;5.176;2023-11-19T10:50:14;19.30;;;7.07;;
19940;SDS011;10132;50.864;5.176;2023-11-19T10:52:17;15.67;;;6.73;;
19940;SDS011;10132;50.864;5.176;2023-11-19T10:54:20;17.87;;;6.00;;
19940;SDS011;10132;50.864;5.176;2023-11-19T10:56:24;21.67;;;9.47;;
19940;SDS011;10132;50.864;5.176;2023-11-19T10:58:28;21.60;;;8.77;;
19940;SDS011;10132;50.864;5.176;2023-11-19T11:00:37;27.97;;;13.77;;
19940;SDS011;10132;50.864;5.176;2023-11-19T11:02:45;20.20;;;11.27;;
19940;SDS011;10132;50.864;5.176;2023-11-19T11:04:51;21.30;;;13.10;;
19940;SDS011;10132;50.864;5.176;2023-11-19T11:06:54;23.77;;;13.33;;
19940;SDS011;10132;50.864;5.176;2023-11-19T11:08:58;27.03;;;14.10;;
19940;SDS011;10132;50.864;5.176;2023-11-19T11:11:01;23.97;;;15.53;;
19940;SDS011;10132;50.864;5.176;2023-11-19T11:13:06;23.43;;;11.93;;
19940;SDS011;10132;50.864;5.176;2023-11-19T11:15:08;21.27;;;12.37;;
19940;SDS011;10132;50.864;5.176;2023-11-19T11:17:13;23.83;;;14.80;;
19940;SDS011;10132;50.864;5.176;2023-11-19T11:19:19;55.13;;;50.73;;
19940;SDS011;10132;50.864;5.176;2023-11-19T11:21:22;26.83;;;16.73;;
19940;SDS011;10132;50.864;5.176;2023-11-19T11:23:32;35.37;;;31.07;;
19940;SDS011;10132;50.864;5.176;2023-11-19T11:25:56;19.30;;;11.63;;
19940;SDS011;10132;50.864;5.176;2023-11-19T11:28:15;21.27;;;12.53;;
19940;SDS011;10132;50.864;5.176;2023-11-19T11:30:29;25.97;;;23.50;;
19940;SDS011;10132;50.864;5.176;2023-11-19T11:32:41;17.30;;;9.30;;
19940;SDS011;10132;50.864;5.176;2023-11-19T11:34:58;22.27;;;18.60;;
19940;SDS011;10132;50.864;5.176;2023-11-19T11:37:16;17.20;;;7.87;;
19940;SDS011;10132;50.864;5.176;2023-11-19T11:39:20;28.37;;;22.80;;
19940;SDS011;10132;50.864;5.176;2023-11-19T11:41:25;16.43;;;9.47;;
19940;SDS011;10132;50.864;5.176;2023-11-19T11:43:47;20.03;;;10.70;;
19940;SDS011;10132;50.864;5.176;2023-11-19T11:45:50;23.17;;;9.87;;
19940;SDS011;10132;50.864;5.176;2023-11-19T11:50:22;19.33;;;11.50;;
19940;SDS011;10132;50.864;5.176;2023-11-19T11:52:25;20.50;;;7.73;;
19940;SDS011;10132;50.864;5.176;2023-11-19T11:54:27;20.93;;;9.47;;
19940;SDS011;10132;50.864;5.176;2023-11-19T11:56:32;16.47;;;8.00;;
19940;SDS011;10132;50.864;5.176;2023-11-19T11:58:35;21.67;;;8.07;;
19940;SDS011;10132;50.864;5.176;2023-11-19T12:00:40;23.00;;;10.80;;
19940;SDS011;10132;50.864;5.176;2023-11-19T12:02:41;20.40;;;7.23;;